Quincy, CA (95971)

7:38 PM PST on November 25, 2014 (GMT -0800)
RAWS QUINCY RD CA US | Change Station
CLOSE
Current Station
Personal Weather Station
Location: Quincy, CA
Elevation: 3651 ft
Nearby Weather Stations
Active Advisory: Special Statement

Elev 3651 ft 39.97 °N, 120.94 °W | Updated 1 hour ago

Clear
Clear
43.0 °F
Feels Like 43.0 °F
N
1.0
Wind Variable Wind from East
Gusts 2.0 mph

Today
High -- | Low -- °F
--% Chance of Precip.
Yesterday
High -- | Low -- °F
Precip. -- in
6:59 AM 4:41 PM
Waxing Crescent, 16% visible
Pressure 30.36 in
Visibility 10.0 miles
Clouds Clear
Dew Point 37.0 °F
Humidity 79%
Rainfall 0.00 in
Snow Depth Not available.
UV 0 out of 12
Pollen .30 out of 12
Air Quality Not available.
Flu Activity Not available.
METAR KBLU 260252Z AUTO 00000KT 10SM CLR 13/03 A3048 RMK AO2 SLP281 T01280028 55003

More Conditions Fewer Conditions

Pressure 30.36 in
Visibility 10.0 miles
Clouds Clear
Dew Point 37.0 °F
Humidity 79%
Rainfall 0.00 in
Snow Depth Not available.
UV 0 out of 12
Pollen .30 out of 12
Air Quality Not available.
Flu Activity Not available.
METAR KBLU 260252Z AUTO 00000KT 10SM CLR 13/03 A3048 RMK AO2 SLP281 T01280028 55003

More Conditions Fewer Conditions

10-Day Weather Forecast

Almanac

Astronomy

Nov. 25, 2014 Rise Set
Actual Time
Civil Twilight
Nautical Twilight
Astronomical Twilight
Moon
Length of Visible Light
Length of Day
Tomorrow will be .
, % of the Moon is Illuminated

Today's Extremes

State Highs State Lows

Community

WunderPhotos

Upload Photos

1,773,676 photos uploaded!

WunderBlogs® & News

Nearby

Air Quality

  Air Quality AQ Index Pollutant
Not available.

Snow Depth

Station Depth Elevation

Earthquake Activity

City Distance Mag. Time & Date
Minimum magnitude displayed is 2.5.

Coastal Water Temperatures

Place Temperature

Nearby Weather Stations